x

New Dungeness - 17 Nm Ne Of Port Angeles, Wa (46088) Wave Buoy

2:20pm - Fri 22nd Feb 2019 All times are PST. -8 hours from GMT.

  • Sig Wave height 4.9ft
  • Swell Direction
  • Peak Period 5s
  • Average Period 5s
  • Wind
    27mph, 34mph gusts
  • Sea Temp 46°f
  • Air Temp 45°f
  • Sea Pressure 1010mb
  • New Dungeness - 17 Nm Ne Of Port Angeles, Wa
  • New Dungeness - 17 Nm Ne Of Port Angeles, Wa

More Historic Weather Station data

Upgrade to MSW Pro to gain access to the past 30 days of data for over 8000 Wavebouys and Weather Stations around the globe.

Join

Comparision Forecast

View Surf forecast
   
Fri 02/22 2:20pm 5ft 5s 5s 27 34 mph 1010mb 46f 45f
1:20pm 2.5ft 4s 4s 27 31 mph 1010mb 46f 45f
12:50pm 2ft 4s 4s 27 31 mph 1010.3mb 46f 45f
12:20pm 2ft 4s 4s 20 25 mph 1010.7mb 46f 44f
11:20am 3ft 5s 4s 4 7 mph 1011.7mb 46f 38f
10:50am 3.5ft 5s 4s 9 13 mph 1011.4mb 46f 38f
10:20am 3.5ft 5s 4s 11 16 mph 1011.3mb 46f 41f
9:50am 3.5ft 4s 4s 11 18 mph 1010mb 46f 42f
9:20am 3.5ft 4s 4s 20 22 mph 1009.1mb 46f 42f
8:50am 2.5ft 4s 4s 16 18 mph 1009.8mb 46f 42f
8:20am 2.5ft 4s 4s 20 25 mph 1010.2mb 46f 41f
7:50am 1.3ft 3s 3s 20 22 mph 1011mb 46f 40f
7:20am 1ft 3s 3s 18 20 mph 1012.2mb 46f 40f
6:50am 0.7ft  -  4s 13 18 mph 1012.7mb 46f 41f
6:20am 0.7ft  -  4s 11 13 mph 1013.4mb 46f 41f
5:50am 0.7ft  -  3s 9 11 mph 1014.5mb 46f 40f
5:20am 0.7ft  -  4s 11 16 mph 1014.5mb 46f 40f
4:50am 0.7ft  -  4s 9 11 mph 1015.6mb 46f 40f
4:20am 0.7ft  -  4s 11 13 mph 1015.6mb 46f 40f
3:50am 1ft 7s 4s 9 11 mph 1016.4mb 46f 40f
3:20am 1ft 8s 5s 11 11 mph 1016.6mb 46f 41f
2:50am 1ft 8s 4s 9 9 mph 1017mb 46f 41f
2:20am 1ft 9s 4s 9 11 mph 1017.4mb 46f 42f
1:50am 1.3ft 10s 3s 7 9 mph 1017.6mb 46f 42f
1:20am 1ft 3s 3s 7 9 mph 1017.7mb 46f 42f
12:50am 1ft 9s 3s 11 13 mph 1017.7mb 46f 42f
12:20am 0.7ft  -  3s 11 13 mph 1018mb 46f 42f
Thu 02/21 11:50pm 0.7ft  -  4s 11 13 mph 1018.2mb 46f 42f
11:20pm 0.7ft  -  5s 11 13 mph 1018.2mb 46f 42f
10:50pm 0.3ft  -  5s 9 11 mph 1018.7mb 46f 42f
10:20pm 0.3ft  -  4s 9 11 mph 1018.9mb 46f 42f
9:50pm 0.3ft  -  5s 7 9 mph 1019.2mb 46f 42f
9:20pm 0.3ft  -  5s 4 7 mph 1019.4mb 46f 42f
8:50pm 0.3ft  -  5s 4 7 mph 1019.6mb 46f 42f
8:20pm 0.3ft  -  5s 2 4 mph 1019.7mb 46f 42f
7:50pm 0.3ft  -  5s 4 4 mph 1019.9mb 46f 42f
7:20pm 0.3ft  -  5s 2 4 mph 1019.8mb 46f 42f
6:50pm 0.3ft  -  5s 2 4 mph 1019.6mb 46f 42f
6:20pm 0.7ft  -  5s  -  2 mph 1019.4mb 46f 42f
5:20pm 0.7ft  -  4s 2 4 mph 1019.6mb 46f 42f
4:50pm 0.7ft  -  4s 2 2 mph 1019.7mb 46f 44f
4:20pm 0.7ft  -  4s 4 7 mph 1019.9mb 46f 43f
3:50pm 1ft 7s 5s 4 9 mph 1019.9mb 46f 42f
2:50pm 0.7ft  -  5s 4 7 mph 1020.1mb 46f 42f
2:20pm 1ft 10s 6s 7 7 mph 1020.3mb 46f 42f
1:50pm 1.3ft 9s 7s 4 4 mph 1020.4mb 46f 42f
1:20pm 1.3ft 10s 7s 4 7 mph 1020.7mb 46f 42f
12:50pm 1.3ft 11s 7s 4 9 mph 1021mb 46f 42f
12:20pm 1ft 10s 5s 7 9 mph 1021.4mb 46f 42f
11:50am 1ft 10s 5s 9 11 mph 1021.8mb 46f 42f
11:20am 0.7ft  -  4s 7 9 mph 1022mb 46f 42f
10:50am 1ft 12s 3s 11 13 mph 1021.8mb 46f 42f
10:20am 1ft 3s 3s 7 9 mph 1021.7mb 46f 42f
9:50am 1ft 3s 3s 11 13 mph 1021.5mb 46f 41f
9:20am 1ft 2s 3s 11 16 mph 1021.2mb 46f 41f
8:50am 1.3ft 2s 3s 13 16 mph 1020.9mb 46f 41f
8:20am 1.3ft 12s 3s 13 18 mph 1020.7mb 46f 41f
7:50am 1.3ft 3s 3s 13 16 mph 1020.4mb 46f 41f
7:20am  -   -   -  13 18 mph 1020.1mb 46f 41f
6:50am 1.3ft 3s 3s 13 18 mph 1020mb 46f 41f
6:20am 1.3ft 4s 3s 20 22 mph 1019.7mb 46f 41f
5:50am 1.3ft 4s 3s 18 20 mph 1019.5mb 46f 42f
5:20am 1.3ft 4s 3s 16 20 mph 1019.4mb 46f 42f
4:50am 1.3ft 4s 3s 16 20 mph 1019.2mb 46f 42f
4:20am 1ft 3s 3s 18 22 mph 1019.1mb 46f 42f
3:50am 1ft 3s 4s 13 16 mph 1019.2mb 46f 42f
3:20am 1.3ft 8s 4s 13 18 mph 1018.9mb 46f 42f
2:50am 2ft 8s 5s 16 20 mph 1018.7mb 46f 42f
2:20am 1.6ft 8s 5s 18 20 mph 1018.7mb 46f 43f
1:50am 1.6ft 9s 4s 18 20 mph 1018.4mb 46f 43f
1:20am 2ft 8s 4s 18 20 mph 1017.9mb 46f 42f
12:50am 1.3ft 10s 3s 18 22 mph 1017.6mb 46f 42f
12:20am 1.6ft 9s 4s 18 22 mph 1017.2mb 46f 43f
Wed 02/20 11:50pm 1.6ft 3s 3s 16 20 mph 1017.1mb 46f 43f
11:20pm 1.6ft 3s 3s 18 20 mph 1016.7mb 46f 43f
10:50pm 1.6ft 3s 3s 18 22 mph 1016.3mb 46f 43f
10:20pm 1.6ft 3s 3s 18 22 mph 1016.2mb 46f 43f
9:50pm 1.6ft 12s 3s 18 20 mph 1015.7mb 46f 43f
9:20pm 1.3ft 9s 3s 13 18 mph 1015.4mb 46f 43f
8:50pm 0.7ft  -  3s 16 18 mph 1015mb 46f 43f
8:20pm 0.7ft  -  3s 16 20 mph 1014.5mb 46f 43f
7:50pm 0.7ft  -  3s 13 16 mph 1014.2mb 46f 43f
7:20pm 1ft 2s 3s 13 16 mph 1013.9mb 46f 43f
6:50pm 0.7ft  -  4s 13 18 mph 1013.5mb 46f 42f
6:20pm 1ft 11s 5s 13 16 mph 1013.1mb 46f 42f
5:50pm 1ft 13s 5s 9 11 mph 1012.9mb 46f 42f
5:20pm 0.7ft  -  4s 9 13 mph 1012.7mb 46f 42f
4:50pm 0.7ft  -  4s 9 11 mph 1012.6mb 46f 42f
4:20pm 1ft 11s 4s 9 11 mph 1012.4mb 46f 42f
3:50pm 1ft 8s 5s 9 11 mph 1012.3mb 46f 42f
3:20pm 1ft 9s 4s 11 13 mph 1012.1mb 46f 41f
2:50pm 1ft 9s 5s 11 13 mph 1011.9mb 46f 41f
2:20pm 1ft 8s 5s 11 16 mph 1011.7mb 46f 41f
1:50pm 1ft 8s 5s 11 13 mph 1011.7mb 46f 40f
1:20pm 1ft 9s 6s 11 13 mph 1011.7mb 46f 40f
12:50pm 1ft 8s 5s 11 16 mph 1011.7mb 46f 40f
12:20pm 1ft 10s 5s 11 13 mph 1011.8mb 46f 40f
11:50am 1ft 10s 5s 13 16 mph 1011.6mb 46f 39f
11:20am 1ft 11s 4s 9 11 mph 1011.6mb 46f 39f
10:50am 1ft 10s 3s 11 13 mph 1011.5mb 46f 40f
10:20am 1.3ft 11s 4s 16 18 mph 1011.3mb 46f 40f
9:50am 1ft 10s 3s 18 20 mph 1011.1mb 46f 39f
9:20am 1.3ft 2s 3s 20 22 mph 1011.1mb 46f 40f
8:50am 1.3ft 10s 3s 20 25 mph 1010.9mb 46f 40f
8:20am 1.6ft 10s 3s 18 20 mph 1011mb 46f 40f
7:50am 1.6ft 3s 3s 16 20 mph 1010.7mb 46f 40f
7:20am 1.6ft 3s 3s 16 20 mph 1010.6mb 46f 40f
6:50am 1.6ft 3s 3s 18 20 mph 1010.4mb 46f 40f
6:20am 1.3ft 8s 3s 20 25 mph 1010.2mb 46f 40f
5:50am 1.3ft 8s 4s 20 25 mph 1010mb 46f 41f
5:20am 1ft 3s 3s 16 20 mph 1010.1mb 46f 40f
4:50am 1.3ft 4s 4s 16 20 mph 1010mb 46f 40f
4:20am 1ft 4s 3s 16 20 mph 1010.2mb 46f 41f
3:50am 1ft 3s 3s 18 20 mph 1010.3mb 46f 41f
3:20am 1ft 4s 3s 18 22 mph 1010.5mb 46f 40f
2:50am 1ft 5s 4s 18 20 mph 1010.7mb 46f 41f
2:20am 1.3ft 5s 4s 13 16 mph 1010.9mb 46f 41f
1:50am 1.6ft 4s 4s 9 13 mph 1010.8mb 46f 40f
1:20am 2ft 5s 4s 13 16 mph 1010.8mb 46f 40f
12:50am 2.5ft 5s 4s 13 16 mph 1010.9mb 46f 40f
12:20am 2ft 5s 4s 13 18 mph 1010.8mb 46f 40f
Tue 02/19 11:50pm 2ft 5s 4s 13 16 mph 1010.9mb 46f 40f
11:20pm 2ft 5s 4s 16 18 mph 1011.1mb 46f 40f
10:50pm 2ft 5s 5s 18 22 mph 1011mb 46f 40f
10:20pm 2ft 6s 5s 16 20 mph 1011.2mb 46f 41f
9:50pm 2ft 6s 5s 11 13 mph 1011.1mb 46f 41f
9:20pm 2.5ft 6s 5s 13 13 mph 1011.2mb 46f 41f
8:50pm 2ft 6s 5s 11 11 mph 1011.4mb 46f 42f
8:20pm 2.5ft 6s 5s 11 16 mph 1011.4mb 46f 42f
7:50pm 2.5ft 5s 5s 16 20 mph 1011.4mb 46f 44f
7:20pm 3ft 5s 4s 20 22 mph 1011.3mb 46f 44f
6:50pm 2.5ft 5s 4s 20 25 mph 1011.4mb 46f 44f
6:20pm 2.5ft 5s 4s 20 25 mph 1011.7mb 46f 44f
5:50pm 2.5ft 4s 4s 22 29 mph 1011.8mb 46f 44f
5:20pm 2.5ft 4s 3s 22 27 mph 1012.2mb 46f 43f
4:50pm 1.3ft 3s 3s 25 31 mph 1012.6mb 46f 43f
4:20pm 1ft 3s 3s 7 9 mph 1014.1mb 46f 42f
3:50pm 1ft 3s 3s 7 11 mph 1014.7mb 46f 41f
3:20pm 1ft 12s 3s 11 13 mph 1015mb 46f 42f
2:50pm 1ft 12s 3s 13 16 mph 1015.1mb 46f 42f
2:20pm 0.7ft  -  4s 11 16 mph 1016mb 46f 42f
1:50pm 0.7ft  -  4s 13 16 mph 1016.6mb 46f 42f
1:20pm 0.7ft  -  4s 11 13 mph 1017.4mb 46f 41f
12:50pm 0.7ft  -  3s 9 13 mph 1018.2mb 46f 42f
12:20pm 0.7ft  -  4s 9 11 mph 1019mb 46f 41f
11:50am 0.7ft  -  4s 9 11 mph 1019.7mb 46f 42f
11:20am 0.3ft  -  4s 9 11 mph 1020.3mb 46f 42f
10:50am 0.7ft  -  4s 2 4 mph 1020.7mb 46f 42f
10:20am 0.7ft  -  3s 2 4 mph 1021.1mb 46f 42f
9:50am 0.7ft  -  3s 2 4 mph 1021.4mb 46f 42f
9:20am 0.3ft  -  3s 4 7 mph 1021.8mb 46f 42f
8:50am 0.3ft  -  3s 4 9 mph 1022mb 46f 42f
8:20am 0.3ft  -  3s 4 7 mph 1021.8mb 46f 42f
7:50am 0.3ft  -  4s 7 9 mph 1022mb 46f 42f
7:20am 0.3ft  -  4s 9 11 mph 1022.2mb 46f 42f
6:50am 0.3ft  -  4s 4 7 mph 1022.3mb 46f 41f
6:20am 0.3ft  -  4s 7 9 mph 1023.1mb 46f 41f
5:50am 0.3ft  -  5s 4 7 mph 1023.2mb 46f 41f
5:20am 0.3ft  -  5s 4 7 mph 1023.4mb 46f 41f
4:50am 0.3ft  -  5s 7 9 mph 1023.9mb 46f 41f
4:20am 0.3ft  -  5s 11 13 mph 1024.4mb 46f 41f
3:50am 0.3ft  -  4s 13 20 mph 1024.7mb 46f 41f
3:20am 0.3ft  -  4s 2 4 mph 1025mb 46f 42f
2:50am 0.3ft  -  4s 2 4 mph 1025.2mb 46f 42f
2:20am 0.3ft  -  4s 2 4 mph 1025.5mb 46f 42f
1:50am 0.7ft  -  5s 2 4 mph 1025.5mb 46f 42f
1:20am 0.7ft  -  5s 7 9 mph 1025.8mb 46f 42f
12:50am 0.7ft  -  5s 7 9 mph 1025.9mb 46f 42f
12:20am 0.7ft  -  6s 7 9 mph 1026.1mb 46f 42f
Mon 02/18 11:50pm 0.7ft  -  6s 7 9 mph 1026.2mb 46f 42f
11:20pm 0.7ft  -  5s 7 9 mph 1026.3mb 46f 42f